createdAt,value
2019-02-19T00:01:16.961Z,95.27
2019-02-19T00:03:25.862Z,95.30
2019-02-19T00:05:33.213Z,95.31
2019-02-19T00:07:40.447Z,95.33
2019-02-19T00:09:47.393Z,95.31
2019-02-19T00:11:54.294Z,95.27
2019-02-19T00:14:02.345Z,95.26
2019-02-19T00:16:09.675Z,95.22
2019-02-19T00:18:16.759Z,95.22
2019-02-19T00:20:23.758Z,95.20
2019-02-19T00:22:30.932Z,95.22
2019-02-19T00:24:38.485Z,95.21
2019-02-19T00:26:49.413Z,95.20
2019-02-19T00:28:56.229Z,95.15
2019-02-19T00:31:03.426Z,95.14
2019-02-19T00:33:10.419Z,95.18
2019-02-19T00:35:17.373Z,95.21
2019-02-19T00:37:24.334Z,95.17
2019-02-19T00:39:31.710Z,95.12
2019-02-19T00:41:38.795Z,95.09
2019-02-19T00:43:45.956Z,95.11
2019-02-19T00:45:54.585Z,95.10
2019-02-19T00:48:01.585Z,95.07
2019-02-19T00:50:08.565Z,95.05
2019-02-19T00:52:17.139Z,94.98
2019-02-19T00:54:24.649Z,94.89
2019-02-19T00:56:31.699Z,94.81
2019-02-19T00:58:39.115Z,94.79
2019-02-19T01:00:46.159Z,94.77
2019-02-19T01:02:53.190Z,94.79
2019-02-19T01:05:03.353Z,94.72
2019-02-19T01:07:11.011Z,94.69
2019-02-19T01:09:19.319Z,94.69
2019-02-19T01:11:26.230Z,94.68
2019-02-19T01:13:33.256Z,94.67
2019-02-19T01:15:40.411Z,94.65
2019-02-19T01:17:47.190Z,94.65
2019-02-19T01:19:55.622Z,94.71
2019-02-19T01:22:03.037Z,94.68
2019-02-19T01:24:09.913Z,94.68
2019-02-19T01:26:17.309Z,94.66
2019-02-19T01:28:24.568Z,94.62
2019-02-19T01:30:31.565Z,94.57
2019-02-19T01:32:38.382Z,94.50
2019-02-19T01:34:45.317Z,94.45
2019-02-19T01:36:52.607Z,94.43
2019-02-19T01:38:59.627Z,94.38
2019-02-19T01:41:07.097Z,94.36
2019-02-19T01:43:13.877Z,94.38
2019-02-19T01:45:21.410Z,94.37
2019-02-19T01:47:28.791Z,94.33
2019-02-19T01:49:36.474Z,94.29
2019-02-19T01:51:43.505Z,94.26
2019-02-19T01:53:50.481Z,94.24
2019-02-19T01:55:57.359Z,94.24
2019-02-19T01:58:04.127Z,94.24
2019-02-19T02:00:12.741Z,94.22
2019-02-19T02:02:19.420Z,94.30
2019-02-19T02:04:26.955Z,94.34
2019-02-19T02:06:34.592Z,94.30
2019-02-19T02:08:41.605Z,94.28
2019-02-19T02:10:48.450Z,94.24
2019-02-19T02:12:55.405Z,94.18
2019-02-19T02:15:02.211Z,94.11
2019-02-19T02:17:10.278Z,94.08
2019-02-19T02:19:38.103Z,94.02
2019-02-19T02:21:45.153Z,93.98
2019-02-19T02:23:52.830Z,93.92
2019-02-19T02:25:59.706Z,93.89
2019-02-19T02:28:06.987Z,93.89
2019-02-19T02:30:14.095Z,93.88
2019-02-19T02:32:21.322Z,93.88
2019-02-19T02:34:28.159Z,93.88
2019-02-19T02:36:35.198Z,93.92
2019-02-19T02:38:42.195Z,93.92
2019-02-19T02:40:49.045Z,93.94
2019-02-19T02:42:56.191Z,93.94
2019-02-19T02:45:04.229Z,93.90
2019-02-19T02:47:11.107Z,93.91
2019-02-19T02:49:18.098Z,93.92
2019-02-19T02:51:24.863Z,93.94
2019-02-19T02:53:32.158Z,93.97
2019-02-19T02:55:38.905Z,93.98
2019-02-19T02:57:45.579Z,94.00
2019-02-19T02:59:52.441Z,93.98
2019-02-19T03:01:59.532Z,93.95
2019-02-19T03:04:06.601Z,93.95
2019-02-19T03:06:30.275Z,93.96
2019-02-19T03:08:37.040Z,93.96
2019-02-19T03:10:44.548Z,93.92
2019-02-19T03:12:51.621Z,93.93
2019-02-19T03:14:58.542Z,93.95
2019-02-19T03:17:05.458Z,93.93
2019-02-19T03:19:12.615Z,93.93
2019-02-19T03:21:19.636Z,93.90
2019-02-19T03:23:27.462Z,93.91
2019-02-19T03:25:34.573Z,93.88
2019-02-19T03:27:41.255Z,93.89
2019-02-19T03:29:48.265Z,93.85
2019-02-19T03:31:56.384Z,93.87
2019-02-19T03:34:03.311Z,93.78
2019-02-19T03:36:10.746Z,93.70
2019-02-19T03:38:18.067Z,93.64
2019-02-19T03:40:25.292Z,93.64
2019-02-19T03:42:32.700Z,93.62
2019-02-19T03:44:39.918Z,93.59
2019-02-19T03:46:47.769Z,93.57
2019-02-19T03:48:55.107Z,93.59
2019-02-19T03:51:02.357Z,93.59
2019-02-19T03:53:09.642Z,93.67
2019-02-19T03:55:17.106Z,93.68
2019-02-19T03:57:26.145Z,93.68
2019-02-19T03:59:33.363Z,93.69
2019-02-19T04:01:40.646Z,93.68
2019-02-19T04:03:47.938Z,93.71
2019-02-19T04:05:55.076Z,93.75
2019-02-19T04:08:02.753Z,93.70
2019-02-19T04:10:11.013Z,93.71
2019-02-19T04:12:17.959Z,93.67
2019-02-19T04:14:25.339Z,93.60
2019-02-19T04:16:32.296Z,93.49
2019-02-19T04:18:39.375Z,93.50
2019-02-19T04:20:45.956Z,93.44
2019-02-19T04:22:52.657Z,93.40
2019-02-19T04:24:59.803Z,93.36
2019-02-19T04:27:07.068Z,93.34
2019-02-19T04:29:15.081Z,93.29
2019-02-19T04:31:21.834Z,93.27
2019-02-19T04:33:28.908Z,93.28
2019-02-19T04:35:36.419Z,93.28
2019-02-19T04:37:43.622Z,93.24
2019-02-19T04:39:50.499Z,93.21
2019-02-19T04:41:57.101Z,93.20
2019-02-19T04:44:04.493Z,93.21
2019-02-19T04:46:15.932Z,93.21
2019-02-19T04:48:22.894Z,93.15
2019-02-19T04:50:29.587Z,93.14
2019-02-19T04:52:36.597Z,93.13
2019-02-19T04:54:43.606Z,93.13
2019-02-19T04:56:52.312Z,93.13
2019-02-19T04:58:59.336Z,93.10
2019-02-19T05:01:06.207Z,93.09
2019-02-19T05:03:13.158Z,93.07
2019-02-19T05:05:20.549Z,93.08
2019-02-19T05:07:27.979Z,93.06
2019-02-19T05:09:34.897Z,93.09
2019-02-19T05:11:41.896Z,93.01
2019-02-19T05:13:49.025Z,93.02
2019-02-19T05:15:56.426Z,92.96
2019-02-19T05:18:03.867Z,92.90
2019-02-19T05:20:12.246Z,92.91
2019-02-19T05:22:19.028Z,92.83
2019-02-19T05:24:25.941Z,92.77
2019-02-19T05:26:32.878Z,92.82
2019-02-19T05:28:39.715Z,92.86
2019-02-19T05:30:46.816Z,92.83
2019-02-19T05:32:53.627Z,92.82
2019-02-19T05:35:01.596Z,92.89
2019-02-19T05:37:08.396Z,92.86
2019-02-19T05:39:15.437Z,92.85
2019-02-19T05:41:23.009Z,92.82
2019-02-19T05:43:30.419Z,93.12
2019-02-19T05:45:37.478Z,93.20
2019-02-19T05:47:45.000Z,92.82
2019-02-19T05:49:52.129Z,92.75
2019-02-19T05:51:59.083Z,92.58
2019-02-19T05:54:06.040Z,92.75
2019-02-19T05:56:12.812Z,92.54
2019-02-19T05:58:20.297Z,92.55
2019-02-19T06:00:27.997Z,92.25
2019-02-19T06:02:35.088Z,91.58
2019-02-19T06:04:42.056Z,91.59
2019-02-19T06:06:49.037Z,91.55
2019-02-19T06:08:56.524Z,90.47
2019-02-19T06:11:04.179Z,90.42
2019-02-19T06:13:11.418Z,90.89
2019-02-19T06:15:19.431Z,90.39
2019-02-19T06:17:26.366Z,90.90
2019-02-19T06:19:33.950Z,90.51
2019-02-19T06:21:41.555Z,90.41
2019-02-19T06:23:49.218Z,90.25
2019-02-19T06:25:56.356Z,90.21
2019-02-19T06:28:03.392Z,90.41
2019-02-19T06:30:13.595Z,90.40
2019-02-19T06:32:22.343Z,90.13
2019-02-19T06:34:29.045Z,88.92
2019-02-19T06:36:36.629Z,88.78
2019-02-19T06:38:43.527Z,88.92
2019-02-19T06:40:50.544Z,89.01
2019-02-19T06:42:57.514Z,88.92
2019-02-19T06:45:06.401Z,88.85
2019-02-19T06:47:13.274Z,88.68
2019-02-19T06:49:20.425Z,88.60
2019-02-19T06:51:28.654Z,88.46
2019-02-19T06:53:36.004Z,88.10
2019-02-19T06:55:43.008Z,87.88
2019-02-19T06:57:49.896Z,87.71
2019-02-19T06:59:56.793Z,87.47
2019-02-19T07:02:22.572Z,87.26
2019-02-19T07:04:30.834Z,86.92
2019-02-19T07:06:38.242Z,86.37
2019-02-19T07:08:44.981Z,85.93
2019-02-19T07:10:52.765Z,85.86
2019-02-19T07:12:59.809Z,85.42
2019-02-19T07:15:09.204Z,85.22
2019-02-19T07:17:16.219Z,84.78
2019-02-19T07:19:23.373Z,84.77
2019-02-19T07:21:30.184Z,84.72
2019-02-19T07:23:36.761Z,85.27
2019-02-19T07:25:44.045Z,85.74
2019-02-19T07:27:51.594Z,84.40
2019-02-19T07:29:59.991Z,83.82
2019-02-19T07:32:08.445Z,84.92
2019-02-19T07:34:16.883Z,81.95
2019-02-19T07:36:24.713Z,83.37
2019-02-19T07:38:31.243Z,82.62
2019-02-19T07:40:38.037Z,82.63
2019-02-19T07:42:45.013Z,82.46
2019-02-19T07:44:51.376Z,81.65
2019-02-19T07:46:58.587Z,81.02
2019-02-19T07:49:05.575Z,79.42
2019-02-19T07:51:12.485Z,78.69
2019-02-19T07:53:24.873Z,80.84
2019-02-19T07:55:32.953Z,77.58
2019-02-19T07:57:40.106Z,78.14
2019-02-19T07:59:46.915Z,80.00
2019-02-19T08:01:54.642Z,75.94
2019-02-19T08:04:01.909Z,76.39
2019-02-19T08:06:09.174Z,76.98
2019-02-19T08:08:15.976Z,79.13
2019-02-19T08:10:22.715Z,77.65
2019-02-19T08:12:30.735Z,77.95
2019-02-19T08:14:37.515Z,77.77
2019-02-19T08:16:44.461Z,76.79
2019-02-19T08:18:51.187Z,76.82
2019-02-19T08:20:58.125Z,77.46
2019-02-19T08:23:05.414Z,76.33
2019-02-19T08:25:12.783Z,75.75
2019-02-19T08:27:19.472Z,76.49
2019-02-19T08:29:26.174Z,76.27
2019-02-19T08:31:33.376Z,73.89
2019-02-19T08:33:40.186Z,75.93
2019-02-19T08:35:47.133Z,75.35
2019-02-19T08:37:54.088Z,76.21
2019-02-19T08:40:01.160Z,74.48
2019-02-19T08:42:08.105Z,73.21
2019-02-19T08:44:15.094Z,70.93
2019-02-19T08:46:22.005Z,74.54
2019-02-19T08:48:28.944Z,74.32
2019-02-19T08:50:36.524Z,72.47
2019-02-19T08:52:44.315Z,71.78
2019-02-19T08:54:51.422Z,72.44
2019-02-19T08:56:58.195Z,72.44
2019-02-19T08:59:05.082Z,72.18
2019-02-19T09:01:12.025Z,69.86
2019-02-19T09:03:21.934Z,70.38
2019-02-19T09:05:29.125Z,70.61
2019-02-19T09:07:36.300Z,69.80
2019-02-19T09:09:43.549Z,69.10
2019-02-19T09:11:50.594Z,68.75
2019-02-19T09:13:57.675Z,68.02
2019-02-19T09:16:04.275Z,67.69
2019-02-19T09:18:11.614Z,67.08
2019-02-19T09:20:18.634Z,66.76
2019-02-19T09:22:26.014Z,67.00
2019-02-19T09:24:33.242Z,66.75
2019-02-19T09:26:40.265Z,66.82
2019-02-19T09:28:50.063Z,66.11
2019-02-19T09:30:57.007Z,65.71
2019-02-19T09:33:04.183Z,65.08
2019-02-19T09:35:13.141Z,65.04
2019-02-19T09:37:20.162Z,64.88
2019-02-19T09:39:27.734Z,64.47
2019-02-19T09:41:35.565Z,63.82
2019-02-19T09:43:42.366Z,63.91
2019-02-19T09:45:49.405Z,63.09
2019-02-19T09:48:01.253Z,62.93
2019-02-19T09:50:05.265Z,63.55
2019-02-19T09:52:12.785Z,62.90
2019-02-19T09:54:19.944Z,62.92
2019-02-19T09:56:27.204Z,61.85
2019-02-19T09:58:34.132Z,61.59
2019-02-19T10:00:42.615Z,61.97
2019-02-19T10:02:50.512Z,62.10
2019-02-19T10:04:57.259Z,61.29
2019-02-19T10:07:03.958Z,61.34
2019-02-19T10:09:12.181Z,61.44
2019-02-19T10:11:19.214Z,61.50
2019-02-19T10:13:26.003Z,60.88
2019-02-19T10:15:32.773Z,60.35
2019-02-19T10:17:42.215Z,60.55
2019-02-19T10:19:48.887Z,61.02
2019-02-19T10:21:56.274Z,60.20
2019-02-19T10:24:04.493Z,60.72
2019-02-19T10:26:14.260Z,60.23
2019-02-19T10:28:21.896Z,59.51
2019-02-19T10:30:30.318Z,58.60
2019-02-19T10:32:38.348Z,58.38
2019-02-19T10:34:45.502Z,58.51
2019-02-19T10:36:52.622Z,58.17
2019-02-19T10:39:02.172Z,57.01
2019-02-19T10:41:09.754Z,57.38
2019-02-19T10:43:17.808Z,57.04
2019-02-19T10:45:27.287Z,57.16
2019-02-19T10:47:35.947Z,57.10
2019-02-19T10:49:42.702Z,57.23
2019-02-19T10:51:50.474Z,57.06
2019-02-19T10:53:57.473Z,56.90
2019-02-19T10:56:05.132Z,56.65
2019-02-19T10:58:22.260Z,55.74
2019-02-19T11:00:23.963Z,55.59
2019-02-19T11:02:31.184Z,55.24
2019-02-19T11:04:40.044Z,54.95
2019-02-19T11:06:47.295Z,55.63
2019-02-19T11:08:54.315Z,55.84
2019-02-19T11:11:01.556Z,56.00
2019-02-19T11:13:09.856Z,55.37
2019-02-19T11:15:17.599Z,55.14
2019-02-19T11:17:25.811Z,55.84
2019-02-19T11:19:32.679Z,55.58
2019-02-19T11:21:39.924Z,55.54
2019-02-19T11:23:48.410Z,55.52
2019-02-19T11:25:55.255Z,55.70
2019-02-19T11:28:02.567Z,55.51
2019-02-19T11:30:16.017Z,55.14
2019-02-19T11:32:22.822Z,55.26
2019-02-19T11:34:31.404Z,55.35
2019-02-19T11:36:40.400Z,55.68
2019-02-19T11:38:47.145Z,54.87
2019-02-19T11:40:54.055Z,55.13
2019-02-19T11:43:00.922Z,55.08
2019-02-19T11:45:15.294Z,54.63
2019-02-19T11:47:26.615Z,55.55
2019-02-19T11:49:31.214Z,55.33
2019-02-19T11:51:38.394Z,55.43
2019-02-19T11:53:45.153Z,55.27
2019-02-19T11:55:53.834Z,55.51
2019-02-19T11:58:01.062Z,56.43
2019-02-19T12:00:17.042Z,55.85
2019-02-19T12:02:32.514Z,55.98
2019-02-19T12:04:34.581Z,55.97
2019-02-19T12:06:45.040Z,55.72
2019-02-19T12:08:51.950Z,55.21
2019-02-19T12:10:59.878Z,56.19
2019-02-19T12:13:07.344Z,56.13
2019-02-19T12:15:14.749Z,56.37
2019-02-19T12:17:21.444Z,56.25
2019-02-19T12:19:28.091Z,56.89
2019-02-19T12:21:36.608Z,56.41
2019-02-19T12:23:43.497Z,56.44
2019-02-19T12:25:51.813Z,56.51
2019-02-19T12:28:00.248Z,56.00
2019-02-19T12:30:19.503Z,55.69
2019-02-19T12:32:27.886Z,55.40
2019-02-19T12:34:34.579Z,54.58
2019-02-19T12:36:41.594Z,54.59
2019-02-19T12:38:48.783Z,54.44
2019-02-19T12:40:55.614Z,54.13
2019-02-19T12:43:02.514Z,54.39
2019-02-19T12:45:14.532Z,54.51
2019-02-19T12:47:21.802Z,54.67
2019-02-19T12:49:28.956Z,54.99
2019-02-19T12:51:36.211Z,55.05
2019-02-19T12:53:44.792Z,55.07
2019-02-19T12:55:51.836Z,54.56
2019-02-19T12:57:58.609Z,54.45
2019-02-19T13:00:07.528Z,55.34
2019-02-19T13:02:14.473Z,55.34
2019-02-19T13:04:21.355Z,55.30
2019-02-19T13:06:28.594Z,55.67
2019-02-19T13:08:36.624Z,55.56
2019-02-19T13:10:43.479Z,55.79
2019-02-19T13:12:50.818Z,56.05
2019-02-19T13:14:57.701Z,55.90
2019-02-19T13:17:05.949Z,56.08
2019-02-19T13:19:12.485Z,55.84
2019-02-19T13:21:19.392Z,56.28
2019-02-19T13:23:26.157Z,55.73
2019-02-19T13:25:33.450Z,55.49
2019-02-19T13:27:40.882Z,55.78
2019-02-19T13:29:48.142Z,55.46
2019-02-19T13:31:54.986Z,55.65
2019-02-19T13:34:02.085Z,55.64
2019-02-19T13:36:10.603Z,55.77
2019-02-19T13:38:19.045Z,55.97
2019-02-19T13:40:26.013Z,56.36
2019-02-19T13:42:33.075Z,56.65
2019-02-19T13:44:40.584Z,56.42
2019-02-19T13:46:47.705Z,56.78
2019-02-19T13:48:54.470Z,56.72
2019-02-19T13:51:01.834Z,57.18
2019-02-19T13:53:16.141Z,57.43
2019-02-19T13:55:27.844Z,57.38
2019-02-19T13:57:34.681Z,57.74
2019-02-19T13:59:42.535Z,57.81
2019-02-19T14:01:50.311Z,57.61
2019-02-19T14:03:57.391Z,57.91
2019-02-19T14:06:04.435Z,57.89
2019-02-19T14:08:14.589Z,58.17
2019-02-19T14:10:20.235Z,57.48
2019-02-19T14:12:27.285Z,57.59
2019-02-19T14:14:41.835Z,57.77
2019-02-19T14:16:52.102Z,57.94
2019-02-19T14:19:01.014Z,57.90
2019-02-19T14:21:13.733Z,57.50
2019-02-19T14:23:24.009Z,57.83
2019-02-19T14:25:32.524Z,57.93
2019-02-19T14:27:46.925Z,58.26
2019-02-19T14:30:12.137Z,58.39
2019-02-19T14:32:26.031Z,58.83
2019-02-19T14:34:52.214Z,59.08
2019-02-19T14:37:06.873Z,59.52
2019-02-19T14:39:21.464Z,59.82
2019-02-19T14:41:30.345Z,60.25
2019-02-19T14:43:54.105Z,60.89
2019-02-19T14:46:10.022Z,61.17
2019-02-19T14:48:32.954Z,61.74
2019-02-19T14:50:59.480Z,62.11
2019-02-19T14:53:24.183Z,62.14
2019-02-19T14:55:49.355Z,62.35
2019-02-19T14:58:01.193Z,62.59
2019-02-19T15:00:28.434Z,62.89
2019-02-19T15:02:36.802Z,63.05
2019-02-19T15:07:19.875Z,63.79
2019-02-19T15:09:44.473Z,63.83
2019-02-19T15:11:52.955Z,63.99
2019-02-19T15:13:59.499Z,63.99
2019-02-19T15:16:25.973Z,64.52
2019-02-19T15:18:35.193Z,64.89
2019-02-19T15:20:49.776Z,65.45
2019-02-19T15:23:02.632Z,65.74
2019-02-19T15:25:27.582Z,65.76
2019-02-19T15:27:39.161Z,66.24
2019-02-19T15:29:52.385Z,66.27
2019-02-19T15:32:09.989Z,66.58
2019-02-19T15:34:36.485Z,66.71
2019-02-19T15:36:43.710Z,66.89
2019-02-19T15:38:55.357Z,66.88
2019-02-19T15:41:14.365Z,66.91
2019-02-19T15:43:35.207Z,67.11
2019-02-19T15:45:42.371Z,67.41
2019-02-19T15:48:01.720Z,67.96
2019-02-19T15:50:28.889Z,68.10
2019-02-19T15:52:41.802Z,68.41
2019-02-19T15:57:28.322Z,68.76
2019-02-19T15:59:40.309Z,69.10
2019-02-19T16:01:52.273Z,69.42
2019-02-19T16:04:07.498Z,69.50
2019-02-19T16:06:28.405Z,69.60
2019-02-19T16:08:53.774Z,69.69
2019-02-19T16:11:02.666Z,69.84
2019-02-19T16:13:11.705Z,69.93
2019-02-19T16:15:29.988Z,70.15
2019-02-19T16:17:38.798Z,70.26
2019-02-19T16:19:56.553Z,70.37
2019-02-19T16:22:09.947Z,70.74
2019-02-19T16:24:24.797Z,70.88
2019-02-19T16:26:44.906Z,71.05
2019-02-19T16:29:06.993Z,71.13
2019-02-19T16:31:24.752Z,71.44
2019-02-19T16:33:35.609Z,71.61
2019-02-19T16:35:48.036Z,71.60
2019-02-19T16:37:56.741Z,71.53
2019-02-19T16:40:08.628Z,71.69
2019-02-19T16:42:34.599Z,71.75
2019-02-19T16:44:42.044Z,71.59
2019-02-19T16:46:53.963Z,71.70
2019-02-19T16:49:12.189Z,71.53
2019-02-19T16:51:27.049Z,71.44
2019-02-19T16:53:45.581Z,71.41
2019-02-19T16:56:16.587Z,71.36
2019-02-19T16:58:31.316Z,71.43
2019-02-19T17:00:40.488Z,71.50
2019-02-19T17:02:58.536Z,71.85
2019-02-19T17:05:18.817Z,72.01
2019-02-19T17:07:36.499Z,72.13
2019-02-19T17:09:45.348Z,72.63
2019-02-19T17:12:02.997Z,72.48
2019-02-19T17:14:11.936Z,72.55
2019-02-19T17:16:20.809Z,72.42
2019-02-19T17:18:45.433Z,72.54
2019-02-19T17:20:57.057Z,72.52
2019-02-19T17:23:11.693Z,72.59
2019-02-19T17:25:18.869Z,72.50
2019-02-19T17:27:30.879Z,72.47
2019-02-19T17:29:46.850Z,72.56
2019-02-19T17:32:05.930Z,72.59
2019-02-19T17:34:21.147Z,72.70
2019-02-19T17:36:43.267Z,72.90
2019-02-19T17:38:50.223Z,73.13
2019-02-19T17:41:05.179Z,73.48
2019-02-19T17:43:13.929Z,73.79
2019-02-19T17:45:23.071Z,74.13
2019-02-19T17:47:31.929Z,74.45
2019-02-19T17:49:59.326Z,74.68
2019-02-19T17:52:08.077Z,75.05
2019-02-19T17:54:20.118Z,75.46
2019-02-19T17:56:32.609Z,75.84
2019-02-19T17:58:57.966Z,76.03
2019-02-19T18:01:09.723Z,76.32
2019-02-19T18:03:16.739Z,76.87
2019-02-19T18:05:28.096Z,77.16
2019-02-19T18:07:40.268Z,77.25
2019-02-19T18:09:49.308Z,77.89
2019-02-19T18:11:58.088Z,78.25
2019-02-19T18:14:06.800Z,78.35
2019-02-19T18:16:16.401Z,78.82
2019-02-19T18:18:34.891Z,79.32
2019-02-19T18:20:47.420Z,79.38
2019-02-19T18:22:51.981Z,79.81
2019-02-19T18:24:59.153Z,79.88
2019-02-19T18:27:06.522Z,80.45
2019-02-19T18:29:14.670Z,80.57
2019-02-19T18:31:21.982Z,80.95
2019-02-19T18:33:29.131Z,81.18
2019-02-19T18:35:36.372Z,81.70
2019-02-19T18:37:43.850Z,81.86
2019-02-19T18:39:51.770Z,82.13
2019-02-19T18:41:59.107Z,82.86
2019-02-19T18:44:06.392Z,82.55
2019-02-19T18:46:15.585Z,82.79
2019-02-19T18:48:22.886Z,82.91
2019-02-19T18:50:30.616Z,82.85
2019-02-19T18:52:38.413Z,83.10
2019-02-19T18:54:46.481Z,83.36
2019-02-19T18:56:54.268Z,83.44
2019-02-19T18:59:01.752Z,83.44
2019-02-19T19:01:09.977Z,83.84
2019-02-19T19:03:17.309Z,83.52
2019-02-19T19:05:25.312Z,83.59
2019-02-19T19:07:33.479Z,83.75
2019-02-19T19:09:40.882Z,84.04
2019-02-19T19:11:48.262Z,83.84
2019-02-19T19:13:55.538Z,84.15
2019-02-19T19:16:03.839Z,84.03
2019-02-19T19:18:11.310Z,84.17
2019-02-19T19:20:18.621Z,84.15
2019-02-19T19:22:26.351Z,84.36
2019-02-19T19:24:34.244Z,84.71
2019-02-19T19:26:41.989Z,84.72
2019-02-19T19:28:49.421Z,84.51
2019-02-19T19:30:57.119Z,84.44
2019-02-19T19:33:04.781Z,84.35
2019-02-19T19:35:14.122Z,84.53
2019-02-19T19:37:21.943Z,84.31
2019-02-19T19:39:30.448Z,84.34
2019-02-19T19:41:37.721Z,84.45
2019-02-19T19:43:47.597Z,84.57
2019-02-19T19:45:55.050Z,84.77
2019-02-19T19:48:02.626Z,84.93
2019-02-19T19:50:14.392Z,84.90
2019-02-19T19:52:21.901Z,85.09
2019-02-19T19:54:29.591Z,84.98
2019-02-19T19:56:37.041Z,84.80
2019-02-19T19:58:44.821Z,84.78
2019-02-19T20:00:52.721Z,84.97
2019-02-19T20:03:00.922Z,84.63
2019-02-19T20:05:11.140Z,84.48
2019-02-19T20:07:18.572Z,84.52
2019-02-19T20:09:25.842Z,84.37
2019-02-19T20:11:33.291Z,84.14
2019-02-19T20:13:40.765Z,83.76
2019-02-19T20:15:48.664Z,83.41
2019-02-19T20:17:56.163Z,82.93
2019-02-19T20:20:03.622Z,82.47
2019-02-19T20:22:13.004Z,82.01
2019-02-19T20:24:21.711Z,81.73
2019-02-19T20:26:29.345Z,81.51
2019-02-19T20:28:36.943Z,81.22
2019-02-19T20:30:44.960Z,80.99
2019-02-19T20:32:52.613Z,80.72
2019-02-19T20:35:00.257Z,80.67
2019-02-19T20:37:07.707Z,80.45
2019-02-19T20:39:16.866Z,80.19
2019-02-19T20:41:24.375Z,79.95
2019-02-19T20:43:33.346Z,79.75
2019-02-19T20:45:42.647Z,79.76
2019-02-19T20:47:51.146Z,79.72
2019-02-19T20:50:00.406Z,79.84
2019-02-19T20:52:08.226Z,79.77
2019-02-19T20:54:16.230Z,79.56
2019-02-19T20:56:23.926Z,79.54
2019-02-19T20:58:33.890Z,79.32
2019-02-19T21:00:40.815Z,79.21
2019-02-19T21:02:49.916Z,78.93
2019-02-19T21:04:57.865Z,78.82
2019-02-19T21:07:05.686Z,78.72
2019-02-19T21:09:13.123Z,78.42
2019-02-19T21:11:20.875Z,78.37
2019-02-19T21:13:28.633Z,78.56
2019-02-19T21:15:36.016Z,78.43
2019-02-19T21:17:43.235Z,78.24
2019-02-19T21:19:50.785Z,78.04
2019-02-19T21:21:58.405Z,78.02
2019-02-19T21:24:06.623Z,78.02
2019-02-19T21:26:13.845Z,77.85
2019-02-19T21:28:22.476Z,77.88
2019-02-19T21:30:30.313Z,77.82
2019-02-19T21:32:38.745Z,77.84
2019-02-19T21:34:46.206Z,77.87
2019-02-19T21:36:53.602Z,77.83
2019-02-19T21:39:00.875Z,77.79
2019-02-19T21:41:10.782Z,77.71
2019-02-19T21:43:18.276Z,77.55
2019-02-19T21:45:25.686Z,77.22
2019-02-19T21:47:33.625Z,77.32
2019-02-19T21:49:41.365Z,77.20
2019-02-19T21:51:54.218Z,76.94
2019-02-19T21:53:57.805Z,76.74
2019-02-19T21:56:05.095Z,76.59
2019-02-19T21:58:12.675Z,76.56
2019-02-19T22:00:21.044Z,76.26
2019-02-19T22:02:29.032Z,75.88
2019-02-19T22:04:36.606Z,75.80
2019-02-19T22:06:43.664Z,75.77
2019-02-19T22:08:50.535Z,76.05
2019-02-19T22:10:58.105Z,75.98
2019-02-19T22:13:05.608Z,76.05
2019-02-19T22:15:16.853Z,76.07
2019-02-19T22:17:23.659Z,76.10
2019-02-19T22:19:30.875Z,75.91
2019-02-19T22:21:39.935Z,76.10
2019-02-19T22:23:47.234Z,76.02
2019-02-19T22:25:54.452Z,76.06
2019-02-19T22:28:01.505Z,76.11
2019-02-19T22:30:10.276Z,76.02
2019-02-19T22:32:18.484Z,76.33
2019-02-19T22:34:26.775Z,76.34
2019-02-19T22:36:34.027Z,76.43
2019-02-19T22:38:40.708Z,76.66
2019-02-19T22:40:55.021Z,76.70
2019-02-19T22:42:56.786Z,76.83
2019-02-19T22:45:03.892Z,76.70
2019-02-19T22:47:10.855Z,76.95
2019-02-19T22:49:17.807Z,77.10
2019-02-19T22:51:24.803Z,77.33
2019-02-19T22:53:36.398Z,77.48
2019-02-19T22:55:51.614Z,77.50
2019-02-19T22:57:58.327Z,77.84
2019-02-19T23:00:10.441Z,78.06
2019-02-19T23:02:20.388Z,78.16
2019-02-19T23:04:29.281Z,78.42
2019-02-19T23:06:36.603Z,78.60
2019-02-19T23:08:43.720Z,78.48
2019-02-19T23:10:52.040Z,78.36
2019-02-19T23:13:00.203Z,78.35
2019-02-19T23:15:07.993Z,78.39
2019-02-19T23:17:15.676Z,78.50
2019-02-19T23:19:23.049Z,78.40
2019-02-19T23:21:29.939Z,78.41
2019-02-19T23:23:37.377Z,78.20
2019-02-19T23:25:44.192Z,77.98
2019-02-19T23:27:51.489Z,77.89
2019-02-19T23:29:58.408Z,77.66
2019-02-19T23:32:05.939Z,77.46
2019-02-19T23:34:13.734Z,77.29
2019-02-19T23:36:22.660Z,77.37
2019-02-19T23:38:29.666Z,77.47
2019-02-19T23:40:36.812Z,77.72
2019-02-19T23:42:43.806Z,77.59
2019-02-19T23:44:50.682Z,77.72
2019-02-19T23:46:58.022Z,77.53
2019-02-19T23:49:05.078Z,77.46
2019-02-19T23:51:12.038Z,77.23
2019-02-19T23:53:18.699Z,77.16
2019-02-19T23:55:26.264Z,76.99
2019-02-19T23:57:33.617Z,77.03
2019-02-19T23:59:40.945Z,77.24
